createdAt,value
2022-11-28T00:00:49.425Z,27.90
2022-11-28T00:01:49.495Z,27.20
2022-11-28T00:02:49.460Z,26.90
2022-11-28T00:03:49.418Z,26.60
2022-11-28T00:04:49.407Z,27.30
2022-11-28T00:05:49.385Z,26.20
2022-11-28T00:06:49.386Z,27.40
2022-11-28T00:07:49.439Z,26.20
2022-11-28T00:08:49.327Z,27.00
2022-11-28T00:09:49.359Z,26.90
2022-11-28T00:10:49.313Z,27.30
2022-11-28T00:11:49.330Z,27.80
2022-11-28T00:12:49.294Z,26.70
2022-11-28T00:13:49.297Z,28.40
2022-11-28T00:14:49.271Z,26.70
2022-11-28T00:15:55.375Z,26.30
2022-11-28T00:16:49.326Z,26.00
2022-11-28T00:17:49.259Z,26.70
2022-11-28T00:18:49.225Z,26.30
2022-11-28T00:19:49.205Z,27.00
2022-11-28T00:20:49.189Z,27.70
2022-11-28T00:21:49.194Z,26.20
2022-11-28T00:22:49.165Z,26.90
2022-11-28T00:23:49.148Z,28.30
2022-11-28T00:24:49.133Z,28.70
2022-11-28T00:25:49.115Z,26.70
2022-11-28T00:26:49.113Z,28.00
2022-11-28T00:27:49.101Z,26.20
2022-11-28T00:28:49.087Z,25.60
2022-11-28T00:29:49.098Z,27.30
2022-11-28T00:30:49.076Z,27.10
2022-11-28T00:31:49.120Z,25.40
2022-11-28T00:32:49.015Z,27.20
2022-11-28T00:33:49.034Z,27.70
2022-11-28T00:34:49.004Z,26.80
2022-11-28T00:35:48.994Z,26.20
2022-11-28T00:36:48.965Z,27.50
2022-11-28T00:37:48.985Z,26.90
2022-11-28T00:38:48.962Z,29.30
2022-11-28T00:39:48.934Z,27.30
2022-11-28T00:40:48.949Z,27.50
2022-11-28T00:41:48.933Z,29.90
2022-11-28T00:42:48.906Z,28.40
2022-11-28T00:43:48.901Z,28.50
2022-11-28T00:44:48.885Z,29.70
2022-11-28T00:45:48.953Z,28.40
2022-11-28T00:46:48.848Z,30.10
2022-11-28T00:47:48.836Z,26.60
2022-11-28T00:48:48.818Z,26.80
2022-11-28T00:49:48.814Z,28.70
2022-11-28T00:50:48.843Z,28.60
2022-11-28T00:51:48.796Z,29.10
2022-11-28T00:52:48.780Z,29.40
2022-11-28T00:53:48.827Z,28.70
2022-11-28T00:54:48.773Z,27.90
2022-11-28T00:55:48.746Z,27.70
2022-11-28T00:56:48.739Z,27.10
2022-11-28T00:57:48.752Z,26.70
2022-11-28T00:58:48.696Z,28.60
2022-11-28T00:59:48.692Z,26.00
2022-11-28T01:00:48.680Z,28.40
2022-11-28T01:01:48.724Z,27.30
2022-11-28T01:02:48.688Z,26.90
2022-11-28T01:03:48.656Z,26.90
2022-11-28T01:04:48.645Z,27.20
2022-11-28T01:05:48.604Z,25.90
2022-11-28T01:06:48.570Z,27.80
2022-11-28T01:07:48.711Z,26.70
2022-11-28T01:08:48.552Z,26.90
2022-11-28T01:09:48.554Z,29.20
2022-11-28T01:10:48.541Z,28.00
2022-11-28T01:11:48.519Z,27.80
2022-11-28T01:12:48.526Z,27.50
2022-11-28T01:13:48.507Z,26.80
2022-11-28T01:14:48.495Z,29.00
2022-11-28T01:15:48.550Z,25.60
2022-11-28T01:16:48.673Z,27.00
2022-11-28T01:17:48.451Z,27.10
2022-11-28T01:18:48.435Z,28.00
2022-11-28T01:19:48.436Z,29.30
2022-11-28T01:20:48.395Z,27.40
2022-11-28T01:21:48.383Z,28.60
2022-11-28T01:22:48.363Z,26.90
2022-11-28T01:23:48.381Z,29.40
2022-11-28T01:24:48.401Z,26.50
2022-11-28T01:25:48.332Z,25.20
2022-11-28T01:26:48.309Z,25.60
2022-11-28T01:27:48.305Z,26.20
2022-11-28T01:28:48.276Z,27.60
2022-11-28T01:29:48.328Z,27.30
2022-11-28T01:30:48.284Z,27.00
2022-11-28T01:31:55.433Z,26.20
2022-11-28T01:32:48.239Z,26.80
2022-11-28T01:33:48.229Z,28.00
2022-11-28T01:34:48.234Z,27.80
2022-11-28T01:35:48.216Z,26.30
2022-11-28T01:36:48.178Z,28.80
2022-11-28T01:37:48.986Z,29.10
2022-11-28T01:38:48.205Z,27.50
2022-11-28T01:39:48.165Z,28.00
2022-11-28T01:40:48.148Z,27.30
2022-11-28T01:41:48.164Z,27.20
2022-11-28T01:42:48.106Z,28.20
2022-11-28T01:43:48.095Z,25.70
2022-11-28T01:44:48.074Z,26.90
2022-11-28T01:45:48.082Z,26.80
2022-11-28T01:46:48.143Z,28.80
2022-11-28T01:47:48.064Z,27.20
2022-11-28T01:48:48.023Z,27.60
2022-11-28T01:49:48.016Z,26.30
2022-11-28T01:50:47.995Z,26.80
2022-11-28T01:51:48.016Z,28.40
2022-11-28T01:52:47.976Z,28.10
2022-11-28T01:53:47.986Z,26.30
2022-11-28T01:54:47.955Z,27.40
2022-11-28T01:55:48.746Z,26.30
2022-11-28T01:56:47.937Z,26.60
2022-11-28T01:57:47.944Z,28.50
2022-11-28T01:58:47.926Z,27.40
2022-11-28T01:59:47.883Z,26.90
2022-11-28T02:00:47.913Z,26.30
2022-11-28T02:01:47.927Z,26.30
2022-11-28T02:02:47.845Z,26.60
2022-11-28T02:03:47.854Z,28.60
2022-11-28T02:04:47.814Z,26.10
2022-11-28T02:05:47.805Z,28.70
2022-11-28T02:06:48.622Z,26.40
2022-11-28T02:07:47.846Z,27.40
2022-11-28T02:08:47.774Z,28.30
2022-11-28T02:09:47.785Z,27.50
2022-11-28T02:10:47.746Z,26.30
2022-11-28T02:11:47.741Z,27.30
2022-11-28T02:12:47.719Z,27.30
2022-11-28T02:13:47.726Z,26.80
2022-11-28T02:14:47.689Z,26.60
2022-11-28T02:15:47.725Z,26.90
2022-11-28T02:16:47.688Z,26.70
2022-11-28T02:17:47.662Z,28.60
2022-11-28T02:18:50.611Z,25.00
2022-11-28T02:19:47.644Z,28.30
2022-11-28T02:20:47.606Z,28.30
2022-11-28T02:21:47.612Z,27.20
2022-11-28T02:22:47.583Z,26.00
2022-11-28T02:23:47.583Z,28.00
2022-11-28T02:24:47.557Z,29.20
2022-11-28T02:25:47.565Z,26.90
2022-11-28T02:26:47.572Z,27.30
2022-11-28T02:27:47.526Z,28.40
2022-11-28T02:28:47.506Z,25.90
2022-11-28T02:29:47.507Z,24.30
2022-11-28T02:30:47.504Z,27.10
2022-11-28T02:31:47.556Z,29.50
2022-11-28T02:32:48.263Z,26.80
2022-11-28T02:33:47.464Z,27.70
2022-11-28T02:34:47.506Z,29.30
2022-11-28T02:35:47.435Z,29.30
2022-11-28T02:36:47.417Z,27.30
2022-11-28T02:37:47.405Z,27.10
2022-11-28T02:38:47.375Z,27.70
2022-11-28T02:39:47.363Z,26.70
2022-11-28T02:40:47.344Z,26.60
2022-11-28T02:41:47.355Z,26.40
2022-11-28T02:42:47.325Z,26.70
2022-11-28T02:43:47.313Z,27.80
2022-11-28T02:44:47.303Z,27.00
2022-11-28T02:45:47.293Z,27.60
2022-11-28T02:46:47.324Z,26.60
2022-11-28T02:47:47.283Z,26.10
2022-11-28T02:48:47.245Z,26.10
2022-11-28T02:49:47.244Z,25.50
2022-11-28T02:50:47.225Z,27.70
2022-11-28T02:51:47.214Z,27.70
2022-11-28T02:52:47.265Z,27.40
2022-11-28T02:53:47.198Z,27.40
2022-11-28T02:54:47.175Z,28.80
2022-11-28T02:55:47.163Z,26.90
2022-11-28T02:56:47.133Z,26.30
2022-11-28T02:57:47.151Z,28.20
2022-11-28T02:58:47.117Z,26.70
2022-11-28T02:59:47.103Z,25.40
2022-11-28T03:00:47.166Z,26.90
2022-11-28T03:01:47.100Z,25.30
2022-11-28T03:02:47.063Z,26.80
2022-11-28T03:03:47.082Z,25.70
2022-11-28T03:04:47.045Z,27.70
2022-11-28T03:05:47.036Z,26.80
2022-11-28T03:06:47.015Z,26.60
2022-11-28T03:07:47.048Z,26.90
2022-11-28T03:08:47.006Z,26.70
2022-11-28T03:09:47.793Z,27.30
2022-11-28T03:10:46.964Z,27.80
2022-11-28T03:11:46.964Z,29.50
2022-11-28T03:12:46.935Z,28.70
2022-11-28T03:13:46.935Z,26.70
2022-11-28T03:14:46.935Z,25.80
2022-11-28T03:15:47.030Z,25.60
2022-11-28T03:16:46.913Z,25.70
2022-11-28T03:17:46.880Z,28.80
2022-11-28T03:18:46.851Z,27.60
2022-11-28T03:19:46.854Z,27.40
2022-11-28T03:20:46.864Z,27.40
2022-11-28T03:21:46.824Z,27.70
2022-11-28T03:22:46.814Z,26.60
2022-11-28T03:23:46.808Z,27.50
2022-11-28T03:24:46.794Z,25.60
2022-11-28T03:25:46.785Z,26.40
2022-11-28T03:26:46.773Z,27.60
2022-11-28T03:27:46.752Z,27.70
2022-11-28T03:28:46.732Z,25.70
2022-11-28T03:29:46.725Z,28.00
2022-11-28T03:30:46.751Z,27.70
2022-11-28T03:31:46.777Z,30.10
2022-11-28T03:32:46.695Z,27.50
2022-11-28T03:33:46.683Z,27.30
2022-11-28T03:34:46.660Z,28.00
2022-11-28T03:35:46.653Z,28.80
2022-11-28T03:36:46.635Z,28.60
2022-11-28T03:37:46.644Z,27.40
2022-11-28T03:38:46.622Z,28.00
2022-11-28T03:39:46.604Z,26.70
2022-11-28T03:40:46.604Z,28.10
2022-11-28T03:41:46.576Z,28.40
2022-11-28T03:42:46.584Z,30.10
2022-11-28T03:43:46.544Z,27.60
2022-11-28T03:44:46.535Z,28.30
2022-11-28T03:45:46.522Z,27.40
2022-11-28T03:46:46.607Z,29.10
2022-11-28T03:47:46.491Z,29.70
2022-11-28T03:48:46.506Z,27.20
2022-11-28T03:49:46.461Z,29.20
2022-11-28T03:50:46.464Z,27.80
2022-11-28T03:51:46.452Z,28.10
2022-11-28T03:52:46.443Z,28.10
2022-11-28T03:53:46.485Z,27.90
2022-11-28T03:54:46.423Z,27.20
2022-11-28T03:55:46.434Z,27.90
2022-11-28T03:56:46.402Z,27.90
2022-11-28T03:57:46.372Z,28.80
2022-11-28T03:58:46.382Z,29.50
2022-11-28T03:59:46.401Z,27.60
2022-11-28T04:00:46.395Z,29.60
2022-11-28T04:01:46.312Z,28.30
2022-11-28T04:02:46.397Z,29.50
2022-11-28T04:03:46.322Z,27.70
2022-11-28T04:04:46.312Z,27.20
2022-11-28T04:05:46.264Z,26.50
2022-11-28T04:06:46.262Z,28.90
2022-11-28T04:07:46.458Z,27.70
2022-11-28T04:08:46.253Z,25.90
2022-11-28T04:09:46.231Z,27.40
2022-11-28T04:10:46.253Z,27.00
2022-11-28T04:11:46.204Z,29.80
2022-11-28T04:12:46.216Z,26.90
2022-11-28T04:13:46.172Z,26.10
2022-11-28T04:14:46.161Z,27.20
2022-11-28T04:15:46.140Z,26.40
2022-11-28T04:16:50.568Z,26.10
2022-11-28T04:17:47.132Z,28.50
2022-11-28T04:18:46.121Z,27.40
2022-11-28T04:19:46.095Z,26.60
2022-11-28T04:20:46.090Z,27.90
2022-11-28T04:21:46.080Z,28.00
2022-11-28T04:22:46.092Z,28.30
2022-11-28T04:23:46.056Z,26.30
2022-11-28T04:24:46.083Z,26.30
2022-11-28T04:25:46.021Z,26.50
2022-11-28T04:26:46.032Z,28.90
2022-11-28T04:27:46.014Z,25.50
2022-11-28T04:28:45.991Z,26.60
2022-11-28T04:29:46.000Z,28.00
2022-11-28T04:30:46.006Z,27.30
2022-11-28T04:31:46.054Z,26.10
2022-11-28T04:32:45.968Z,26.40
2022-11-28T04:33:45.910Z,28.70
2022-11-28T04:34:45.982Z,28.70
2022-11-28T04:35:45.890Z,29.90
2022-11-28T04:36:45.899Z,28.40
2022-11-28T04:37:45.891Z,28.40
2022-11-28T04:38:45.871Z,27.60
2022-11-28T04:39:45.851Z,28.10
2022-11-28T04:40:45.842Z,28.00
2022-11-28T04:41:45.821Z,28.00
2022-11-28T04:42:49.988Z,26.40
2022-11-28T04:43:46.809Z,27.50
2022-11-28T04:44:45.790Z,26.80
2022-11-28T04:45:45.809Z,28.40
2022-11-28T04:46:45.760Z,26.90
2022-11-28T04:47:45.741Z,26.40
2022-11-28T04:48:45.762Z,28.00
2022-11-28T04:49:45.722Z,28.20
2022-11-28T04:50:45.722Z,27.00
2022-11-28T04:51:45.691Z,27.80
2022-11-28T04:52:45.742Z,25.80
2022-11-28T04:53:45.682Z,27.10
2022-11-28T04:54:45.684Z,28.60
2022-11-28T04:55:45.641Z,27.70
2022-11-28T04:56:45.640Z,27.40
2022-11-28T04:57:45.664Z,26.10
2022-11-28T04:58:45.627Z,28.70
2022-11-28T04:59:45.615Z,26.20
2022-11-28T05:00:45.655Z,27.50
2022-11-28T05:01:45.586Z,26.20
2022-11-28T05:02:45.630Z,28.40
2022-11-28T05:03:45.542Z,25.60
2022-11-28T05:04:45.601Z,26.20
2022-11-28T05:05:45.539Z,27.30
2022-11-28T05:06:45.521Z,27.90
2022-11-28T05:07:45.709Z,27.30
2022-11-28T05:08:45.512Z,27.80
2022-11-28T05:09:45.481Z,29.10
2022-11-28T05:10:45.478Z,27.20
2022-11-28T05:11:45.438Z,26.70
2022-11-28T05:12:45.607Z,25.70
2022-11-28T05:13:45.419Z,26.40
2022-11-28T05:14:45.426Z,26.50
2022-11-28T05:15:45.459Z,27.80
2022-11-28T05:16:45.497Z,28.50
2022-11-28T05:17:45.466Z,29.10
2022-11-28T05:18:45.395Z,28.20
2022-11-28T05:19:45.350Z,26.90
2022-11-28T05:20:45.389Z,28.50
2022-11-28T05:21:45.326Z,27.30
2022-11-28T05:22:45.413Z,28.10
2022-11-28T05:23:45.294Z,28.10
2022-11-28T05:24:45.585Z,29.40
2022-11-28T05:25:45.270Z,29.40
2022-11-28T05:26:45.290Z,27.00
2022-11-28T05:27:45.240Z,26.70
2022-11-28T05:28:45.248Z,28.30
2022-11-28T05:29:51.792Z,27.00
2022-11-28T05:30:46.228Z,28.20
2022-11-28T05:31:45.258Z,26.70
2022-11-28T05:32:45.325Z,28.80
2022-11-28T05:33:45.168Z,27.70
2022-11-28T05:34:45.169Z,26.40
2022-11-28T05:35:45.161Z,27.90
2022-11-28T05:36:45.139Z,26.60
2022-11-28T05:37:45.136Z,27.90
2022-11-28T05:38:45.112Z,28.10
2022-11-28T05:39:45.422Z,27.80
2022-11-28T05:40:45.088Z,26.90
2022-11-28T05:41:45.070Z,26.80
2022-11-28T05:42:45.069Z,26.40
2022-11-28T05:43:45.050Z,28.60
2022-11-28T05:44:45.031Z,28.70
2022-11-28T05:45:45.053Z,28.40
2022-11-28T05:46:45.011Z,28.80
2022-11-28T05:47:44.989Z,29.90
2022-11-28T05:48:45.001Z,29.70
2022-11-28T05:49:45.272Z,27.10
2022-11-28T05:50:44.960Z,29.40
2022-11-28T05:51:44.939Z,27.60
2022-11-28T05:52:44.927Z,26.90
2022-11-28T05:53:44.919Z,28.10
2022-11-28T05:54:44.907Z,27.70
2022-11-28T05:55:44.878Z,28.50
2022-11-28T05:56:44.876Z,26.40
2022-11-28T05:57:44.858Z,26.10
2022-11-28T05:58:44.897Z,28.20
2022-11-28T05:59:45.289Z,27.80
2022-11-28T06:00:44.829Z,27.70
2022-11-28T06:01:44.852Z,29.80
2022-11-28T06:02:44.801Z,26.90
2022-11-28T06:03:44.782Z,27.70
2022-11-28T06:04:44.852Z,28.20
2022-11-28T06:05:44.860Z,28.00
2022-11-28T06:06:44.762Z,26.80
2022-11-28T06:07:44.794Z,28.20
2022-11-28T06:08:44.728Z,28.80
2022-11-28T06:09:45.093Z,26.70
2022-11-28T06:10:44.728Z,30.30
2022-11-28T06:11:44.677Z,28.80
2022-11-28T06:12:44.676Z,27.10
2022-11-28T06:13:44.647Z,27.90
2022-11-28T06:14:44.649Z,28.70
2022-11-28T06:15:44.652Z,27.40
2022-11-28T06:16:44.718Z,26.10
2022-11-28T06:17:44.599Z,26.90
2022-11-28T06:18:44.590Z,26.90
2022-11-28T06:19:45.013Z,26.80
2022-11-28T06:20:44.582Z,26.60
2022-11-28T06:21:44.559Z,27.20
2022-11-28T06:22:44.682Z,28.00
2022-11-28T06:23:44.517Z,27.80
2022-11-28T06:24:44.556Z,28.20
2022-11-28T06:25:44.489Z,29.80
2022-11-28T06:26:44.507Z,26.10
2022-11-28T06:27:44.465Z,26.40
2022-11-28T06:28:44.457Z,26.60
2022-11-28T06:29:44.742Z,26.60
2022-11-28T06:30:44.437Z,26.90
2022-11-28T06:31:44.476Z,27.90
2022-11-28T06:32:44.468Z,26.80
2022-11-28T06:33:44.392Z,28.30
2022-11-28T06:34:44.466Z,29.00
2022-11-28T06:35:44.372Z,26.80
2022-11-28T06:36:44.428Z,27.50
2022-11-28T06:37:44.643Z,29.60
2022-11-28T06:38:44.689Z,28.00
2022-11-28T06:39:44.567Z,27.20
2022-11-28T06:40:44.317Z,25.40
2022-11-28T06:41:44.276Z,25.60
2022-11-28T06:42:44.288Z,26.80
2022-11-28T06:43:44.257Z,26.80
2022-11-28T06:44:44.267Z,27.10
2022-11-28T06:45:44.250Z,27.90
2022-11-28T06:46:44.236Z,28.70
2022-11-28T06:47:44.236Z,28.40
2022-11-28T06:48:44.220Z,27.10
2022-11-28T06:49:44.472Z,27.70
2022-11-28T06:50:44.187Z,29.60
2022-11-28T06:51:44.156Z,25.20
2022-11-28T06:52:44.166Z,29.00
2022-11-28T06:53:44.154Z,26.40
2022-11-28T06:54:44.128Z,29.90
2022-11-28T06:55:44.109Z,27.00
2022-11-28T06:56:44.114Z,31.10
2022-11-28T06:57:44.149Z,29.30
2022-11-28T06:58:44.142Z,27.70
2022-11-28T06:59:44.211Z,28.20
2022-11-28T07:00:44.088Z,27.50
2022-11-28T07:01:44.117Z,29.40
2022-11-28T07:02:44.080Z,31.10
2022-11-28T07:03:44.047Z,28.00
2022-11-28T07:04:44.006Z,27.80
2022-11-28T07:05:43.975Z,27.90
2022-11-28T07:06:43.985Z,28.50
2022-11-28T07:07:53.905Z,28.00
2022-11-28T07:08:44.966Z,27.80
2022-11-28T07:09:44.344Z,26.30
2022-11-28T07:10:43.937Z,29.50
2022-11-28T07:11:43.915Z,25.60
2022-11-28T07:12:43.904Z,27.60
2022-11-28T07:13:43.887Z,27.00
2022-11-28T07:14:43.895Z,28.90
2022-11-28T07:15:43.869Z,27.80
2022-11-28T07:16:43.886Z,28.00
2022-11-28T07:17:43.835Z,27.70
2022-11-28T07:18:43.837Z,28.00
2022-11-28T07:19:44.141Z,27.40
2022-11-28T07:20:43.805Z,26.20
2022-11-28T07:21:43.776Z,27.70
2022-11-28T07:22:43.769Z,27.70
2022-11-28T07:23:43.776Z,28.40
2022-11-28T07:24:43.746Z,28.30
2022-11-28T07:25:43.734Z,27.60
2022-11-28T07:26:43.716Z,27.20
2022-11-28T07:27:43.718Z,28.30
2022-11-28T07:28:43.706Z,25.10
2022-11-28T07:29:43.948Z,25.90
2022-11-28T07:30:43.688Z,26.40
2022-11-28T07:31:50.775Z,26.20
2022-11-28T07:32:43.653Z,25.30
2022-11-28T07:33:43.620Z,29.50
2022-11-28T07:34:47.711Z,26.80
2022-11-28T07:35:44.628Z,26.80
2022-11-28T07:36:43.601Z,26.20
2022-11-28T07:37:43.590Z,27.00
2022-11-28T07:38:43.560Z,26.50
2022-11-28T07:39:43.765Z,26.40
2022-11-28T07:40:43.561Z,27.30
2022-11-28T07:41:43.531Z,29.30
2022-11-28T07:42:43.554Z,29.40
2022-11-28T07:43:43.502Z,27.70
2022-11-28T07:44:43.511Z,28.10
2022-11-28T07:46:00.135Z,28.20
2022-11-28T07:46:44.530Z,25.40
2022-11-28T07:47:43.484Z,27.20
2022-11-28T07:48:43.505Z,28.20
2022-11-28T07:49:43.770Z,27.00
2022-11-28T07:50:43.431Z,27.00
2022-11-28T07:51:43.416Z,29.40
2022-11-28T07:52:43.431Z,27.40
2022-11-28T07:53:43.400Z,27.60
2022-11-28T07:54:43.385Z,26.80
2022-11-28T07:55:43.388Z,27.30
2022-11-28T07:57:44.350Z,26.60
2022-11-28T07:58:43.329Z,26.70
2022-11-28T07:59:43.580Z,28.00
2022-11-28T08:00:43.278Z,28.40
2022-11-28T08:01:43.335Z,30.00
2022-11-28T08:02:43.270Z,26.40
2022-11-28T08:03:43.252Z,26.00
2022-11-28T08:04:49.401Z,27.80
2022-11-28T08:05:44.301Z,25.80
2022-11-28T08:06:43.203Z,27.60
2022-11-28T08:07:43.224Z,26.20
2022-11-28T08:08:43.199Z,26.70
2022-11-28T08:09:43.385Z,26.40
2022-11-28T08:10:43.153Z,27.10
2022-11-28T08:11:43.172Z,27.00
2022-11-28T08:12:43.140Z,28.50
2022-11-28T08:13:43.158Z,26.30
2022-11-28T08:14:43.231Z,26.40
2022-11-28T08:15:43.118Z,27.30
2022-11-28T08:16:43.129Z,27.20
2022-11-28T08:17:43.143Z,28.70
2022-11-28T08:18:43.080Z,26.60
2022-11-28T08:19:43.059Z,26.90
2022-11-28T08:20:43.009Z,26.10
2022-11-28T08:21:43.023Z,26.80
2022-11-28T08:22:43.028Z,27.20
2022-11-28T08:23:42.988Z,26.60
2022-11-28T08:24:43.139Z,27.90
2022-11-28T08:25:42.970Z,26.10
2022-11-28T08:26:42.961Z,25.90
2022-11-28T08:27:42.938Z,25.90
2022-11-28T08:28:42.961Z,24.80
2022-11-28T08:29:43.181Z,24.60
2022-11-28T08:30:42.937Z,25.60
2022-11-28T08:31:42.898Z,26.50
2022-11-28T08:32:43.231Z,25.60
2022-11-28T08:33:42.913Z,26.80
2022-11-28T08:34:42.849Z,26.70
2022-11-28T08:35:42.832Z,27.90
2022-11-28T08:36:42.819Z,26.40
2022-11-28T08:37:42.830Z,26.70
2022-11-28T08:38:47.009Z,26.70
2022-11-28T08:39:44.227Z,25.70
2022-11-28T08:40:42.770Z,25.50
2022-11-28T08:41:42.790Z,27.10
2022-11-28T08:42:42.741Z,26.50
2022-11-28T08:43:42.753Z,24.90
2022-11-28T08:44:42.787Z,26.10
2022-11-28T08:45:42.806Z,24.70
2022-11-28T08:46:42.691Z,26.20
2022-11-28T08:47:42.670Z,27.30
2022-11-28T08:48:42.680Z,25.80
2022-11-28T08:49:42.913Z,25.00
2022-11-28T08:50:46.757Z,26.40
2022-11-28T08:51:43.635Z,27.70
2022-11-28T08:52:42.620Z,24.90
2022-11-28T08:53:46.073Z,28.30
2022-11-28T08:54:43.848Z,24.50
2022-11-28T08:55:42.602Z,28.20
2022-11-28T08:56:42.561Z,27.40
2022-11-28T08:57:42.581Z,28.00
2022-11-28T08:58:42.569Z,25.70
2022-11-28T08:59:42.937Z,26.50
2022-11-28T09:00:42.527Z,25.70
2022-11-28T09:01:42.608Z,24.50
2022-11-28T09:02:42.500Z,26.30
2022-11-28T09:03:42.540Z,25.10
2022-11-28T09:04:42.460Z,27.00
2022-11-28T09:05:42.490Z,25.30
2022-11-28T09:06:42.451Z,27.00
2022-11-28T09:07:42.471Z,24.50
2022-11-28T09:08:42.409Z,24.90
2022-11-28T09:09:42.411Z,27.50
2022-11-28T09:10:42.391Z,25.70
2022-11-28T09:11:42.406Z,25.30
2022-11-28T09:12:42.368Z,26.40
2022-11-28T09:13:42.359Z,27.00
2022-11-28T09:14:42.327Z,26.00
2022-11-28T09:15:42.355Z,24.50
2022-11-28T09:16:42.390Z,25.40
2022-11-28T09:17:42.335Z,24.80
2022-11-28T09:18:42.292Z,25.90
2022-11-28T09:19:43.436Z,26.60
2022-11-28T09:20:42.255Z,28.70
2022-11-28T09:21:42.251Z,26.60
2022-11-28T09:22:42.261Z,25.20
2022-11-28T09:23:42.221Z,25.70
2022-11-28T09:24:42.224Z,26.10
2022-11-28T09:25:42.199Z,28.20
2022-11-28T09:26:42.187Z,26.50
2022-11-28T09:27:42.189Z,27.30
2022-11-28T09:28:42.152Z,25.60
2022-11-28T09:29:42.478Z,26.10
2022-11-28T09:30:42.162Z,26.40
2022-11-28T09:31:47.160Z,24.90
2022-11-28T09:32:43.107Z,24.90
2022-11-28T09:33:42.121Z,24.40
2022-11-28T09:34:42.081Z,25.60
2022-11-28T09:35:42.081Z,26.20
2022-11-28T09:36:42.062Z,25.80
2022-11-28T09:37:42.091Z,23.70
2022-11-28T09:38:42.070Z,24.30
2022-11-28T09:39:57.380Z,24.90
2022-11-28T09:40:43.000Z,25.70
2022-11-28T09:41:42.010Z,23.70
2022-11-28T09:42:41.972Z,25.90
2022-11-28T09:43:41.968Z,24.70
2022-11-28T09:44:41.962Z,24.90
2022-11-28T09:45:41.964Z,26.30
2022-11-28T09:46:41.930Z,24.80
2022-11-28T09:47:41.920Z,23.60
2022-11-28T09:48:41.902Z,24.20
2022-11-28T09:49:41.980Z,24.60
2022-11-28T09:50:41.890Z,23.60
2022-11-28T09:51:41.873Z,23.50
2022-11-28T09:52:41.905Z,24.00
2022-11-28T09:53:41.851Z,24.60
2022-11-28T09:54:41.820Z,23.10
2022-11-28T09:55:41.830Z,24.10
2022-11-28T09:56:41.810Z,25.80
2022-11-28T09:57:41.799Z,24.30
2022-11-28T09:58:41.790Z,23.90
2022-11-28T09:59:42.175Z,22.90
2022-11-28T10:00:41.782Z,24.90
2022-11-28T10:01:41.779Z,23.40
2022-11-28T10:02:41.722Z,24.20
2022-11-28T10:03:41.755Z,23.50
2022-11-28T10:04:41.734Z,24.80
2022-11-28T10:05:41.720Z,22.40
2022-11-28T10:06:41.658Z,24.50
2022-11-28T10:07:41.721Z,24.60
2022-11-28T10:08:41.637Z,25.70
2022-11-28T10:09:42.009Z,24.10
2022-11-28T10:10:41.619Z,23.10
2022-11-28T10:11:41.622Z,23.80
2022-11-28T10:12:41.592Z,23.30
2022-11-28T10:14:06.713Z,22.70
2022-11-28T10:14:42.568Z,23.00
2022-11-28T10:15:41.589Z,25.40
2022-11-28T10:16:41.663Z,23.70
2022-11-28T10:17:41.663Z,24.20
2022-11-28T10:18:41.533Z,22.70
2022-11-28T10:19:56.982Z,24.90
2022-11-28T10:20:42.533Z,23.50
2022-11-28T10:21:41.491Z,24.20
2022-11-28T10:22:41.471Z,25.00
2022-11-28T10:23:41.451Z,24.20
2022-11-28T10:24:41.429Z,23.40
2022-11-28T10:25:41.430Z,24.10
2022-11-28T10:26:41.478Z,26.40
2022-11-28T10:27:41.527Z,24.50
2022-11-28T10:28:41.420Z,22.50
2022-11-28T10:29:41.846Z,23.90
2022-11-28T10:30:41.425Z,22.40
2022-11-28T10:31:41.372Z,24.20
2022-11-28T10:32:41.351Z,26.00
2022-11-28T10:33:41.353Z,25.80
2022-11-28T10:34:41.323Z,24.40
2022-11-28T10:35:41.329Z,25.30
2022-11-28T10:36:41.301Z,24.60
2022-11-28T10:37:41.276Z,23.50
2022-11-28T10:38:41.251Z,24.80
2022-11-28T10:39:41.650Z,23.80
2022-11-28T10:40:41.228Z,23.00
2022-11-28T10:41:41.259Z,23.70
2022-11-28T10:42:41.255Z,23.20
2022-11-28T10:43:41.217Z,23.90
2022-11-28T10:44:41.190Z,24.00
2022-11-28T10:45:41.235Z,23.40
2022-11-28T10:46:41.232Z,23.50
2022-11-28T10:47:41.164Z,23.50
2022-11-28T10:48:41.474Z,23.90
2022-11-28T10:49:41.519Z,24.70
2022-11-28T10:50:41.101Z,24.40
2022-11-28T10:51:41.118Z,23.30
2022-11-28T10:52:41.131Z,23.30
2022-11-28T10:53:41.090Z,23.40
2022-11-28T10:54:41.058Z,23.00
2022-11-28T10:55:41.056Z,22.50
2022-11-28T10:56:41.015Z,25.00
2022-11-28T10:57:41.028Z,23.00
2022-11-28T10:58:40.994Z,21.50
2022-11-28T10:59:41.359Z,22.00
2022-11-28T11:00:40.980Z,23.00
2022-11-28T11:01:42.105Z,22.60
2022-11-28T11:02:40.960Z,22.00
2022-11-28T11:03:40.959Z,22.60
2022-11-28T11:04:40.963Z,21.90
2022-11-28T11:05:40.934Z,22.10
2022-11-28T11:06:47.648Z,23.80
2022-11-28T11:07:42.063Z,23.20
2022-11-28T11:08:40.861Z,23.20
2022-11-28T11:09:41.147Z,22.50
2022-11-28T11:10:40.862Z,22.30
2022-11-28T11:11:40.879Z,21.70
2022-11-28T11:12:40.824Z,22.30
2022-11-28T11:13:40.842Z,22.70
2022-11-28T11:14:40.792Z,22.30
2022-11-28T11:15:40.851Z,21.10
2022-11-28T11:16:40.830Z,21.50
2022-11-28T11:17:40.763Z,22.60
2022-11-28T11:18:40.762Z,21.50
2022-11-28T11:19:41.083Z,21.60
2022-11-28T11:20:40.722Z,23.40
2022-11-28T11:21:40.713Z,21.90
2022-11-28T11:22:40.687Z,21.00
2022-11-28T11:23:40.680Z,21.30
2022-11-28T11:24:40.660Z,22.90
2022-11-28T11:25:40.682Z,21.90
2022-11-28T11:26:40.640Z,21.90
2022-11-28T11:27:40.662Z,22.00
2022-11-28T11:28:40.612Z,21.10
2022-11-28T11:29:41.224Z,22.20
2022-11-28T11:30:40.657Z,22.40
2022-11-28T11:31:40.645Z,22.10
2022-11-28T11:32:40.676Z,21.00
2022-11-28T11:33:40.560Z,23.00
2022-11-28T11:34:40.562Z,22.00
2022-11-28T11:35:40.529Z,21.70
2022-11-28T11:36:40.601Z,21.20
2022-11-28T11:37:40.538Z,23.00
2022-11-28T11:38:40.511Z,22.50
2022-11-28T11:39:40.767Z,23.60
2022-11-28T11:40:40.500Z,22.50
2022-11-28T11:41:40.490Z,22.10
2022-11-28T11:42:40.463Z,21.20
2022-11-28T11:43:40.440Z,21.50
2022-11-28T11:44:40.412Z,22.80
2022-11-28T11:45:40.462Z,21.90
2022-11-28T11:46:40.521Z,21.90
2022-11-28T11:47:40.409Z,21.40
2022-11-28T11:48:40.393Z,21.70
2022-11-28T11:49:40.533Z,21.80
2022-11-28T11:50:40.331Z,22.20
2022-11-28T11:51:40.331Z,23.10
2022-11-28T11:52:40.315Z,21.70
2022-11-28T11:53:40.305Z,22.10
2022-11-28T11:54:40.319Z,20.80
2022-11-28T11:55:40.280Z,21.30
2022-11-28T11:56:40.329Z,22.30
2022-11-28T11:57:40.329Z,21.70
2022-11-28T11:58:40.237Z,21.50
2022-11-28T11:59:40.652Z,21.30
2022-11-28T12:00:40.212Z,20.90
2022-11-28T12:01:40.229Z,21.20
2022-11-28T12:02:40.385Z,22.10
2022-11-28T12:03:40.266Z,22.00
2022-11-28T12:04:52.489Z,20.90
2022-11-28T12:05:59.344Z,21.00
2022-11-28T12:06:41.121Z,21.30
2022-11-28T12:07:40.149Z,20.90
2022-11-28T12:08:40.149Z,21.40
2022-11-28T12:09:40.089Z,20.80
2022-11-28T12:10:40.081Z,21.80
2022-11-28T12:11:43.954Z,20.50
2022-11-28T12:12:41.051Z,21.40
2022-11-28T12:13:40.083Z,21.50
2022-11-28T12:14:40.063Z,21.00
2022-11-28T12:15:40.109Z,20.90
2022-11-28T12:16:40.106Z,21.40
2022-11-28T12:17:48.857Z,21.10
2022-11-28T12:18:41.040Z,20.60
2022-11-28T12:19:40.013Z,21.70
2022-11-28T12:20:39.960Z,21.60
2022-11-28T12:21:39.959Z,21.20
2022-11-28T12:22:39.941Z,21.70
2022-11-28T12:23:39.950Z,22.40
2022-11-28T12:24:39.920Z,21.50
2022-11-28T12:25:39.881Z,21.40
2022-11-28T12:26:39.941Z,21.90
2022-11-28T12:27:39.890Z,22.30
2022-11-28T12:28:39.904Z,21.60
2022-11-28T12:29:39.892Z,22.10
2022-11-28T12:30:41.911Z,22.70
2022-11-28T12:31:40.170Z,21.90
2022-11-28T12:32:40.426Z,21.70
2022-11-28T12:33:39.803Z,21.90
2022-11-28T12:34:39.792Z,22.20
2022-11-28T12:35:39.792Z,21.70
2022-11-28T12:36:39.762Z,23.80
2022-11-28T12:38:02.920Z,22.10
2022-11-28T12:38:40.719Z,21.60
2022-11-28T12:39:39.701Z,22.10
2022-11-28T12:40:39.740Z,21.10
2022-11-28T12:41:39.691Z,21.30
2022-11-28T12:42:39.703Z,23.00
2022-11-28T12:43:39.662Z,23.00
2022-11-28T12:44:39.660Z,21.90
2022-11-28T12:45:39.641Z,21.40
2022-11-28T12:46:39.777Z,21.50
2022-11-28T12:47:39.613Z,22.90
2022-11-28T12:48:39.602Z,21.80
2022-11-28T12:49:39.609Z,24.60
2022-11-28T12:50:39.582Z,22.40
2022-11-28T12:51:39.552Z,22.40
2022-11-28T12:52:39.612Z,22.50
2022-11-28T12:53:39.533Z,24.30